Norwoodville, Iowa
Current Conditions -  °F | °C
As of 7:15 PM on Friday 28 Nov 2014 (Local Time) from KIKV Reporting Station
Clear Clear  
Wind Chill: 32°   Ceiling: Unl
Heat Index: 32°   Visibility: 10mi
Dew Point: 30°   Wind: 3mph
Humidity: 93%   Direction: 140°SE
Pressure: 29.74"   Gusts: NA
Location:  41.6142°N, 93.5543°W
Report Text: KIKV 290115Z AUTO 14003KT 10SM CLR 00/M01 A2974 RMK AO2
Loading
Personal Weather Stations






























Interactive Weather Map New forecast layout! Learn more

10-Day Weather Forecast

Advertisements
Track Severe Weather on mobile